createdAt,value
2018-09-06T00:00:31.261Z,20.00
2018-09-06T00:05:34.376Z,20.00
2018-09-06T00:10:37.457Z,19.90
2018-09-06T00:15:40.572Z,19.90
2018-09-06T00:20:43.669Z,19.80
2018-09-06T00:25:53.427Z,19.80
2018-09-06T00:30:56.539Z,19.70
2018-09-06T00:41:09.098Z,19.70
2018-09-06T00:46:12.215Z,19.60
2018-09-06T00:51:15.364Z,19.60
2018-09-06T00:56:18.467Z,19.60
2018-09-06T01:01:21.586Z,19.50
2018-09-06T01:06:24.676Z,19.40
2018-09-06T01:11:27.772Z,19.30
2018-09-06T01:16:30.872Z,19.30
2018-09-06T01:21:33.987Z,19.20
2018-09-06T01:26:37.102Z,19.20
2018-09-06T01:31:40.210Z,19.10
2018-09-06T01:36:45.522Z,19.10
2018-09-06T01:41:48.626Z,19.00
2018-09-06T01:46:51.706Z,19.00
2018-09-06T01:51:54.815Z,18.90
2018-09-06T01:56:57.917Z,18.90
2018-09-06T02:02:01.096Z,18.90
2018-09-06T02:07:04.204Z,18.90
2018-09-06T02:12:07.291Z,18.80
2018-09-06T02:17:10.382Z,18.80
2018-09-06T02:22:13.487Z,18.80
2018-09-06T02:27:16.593Z,18.80
2018-09-06T02:32:19.702Z,18.70
2018-09-06T02:37:22.802Z,18.60
2018-09-06T02:42:25.919Z,18.60
2018-09-06T02:47:29.055Z,18.60
2018-09-06T02:52:32.143Z,18.60
2018-09-06T02:57:35.222Z,18.60
2018-09-06T03:02:38.323Z,18.60
2018-09-06T03:07:41.393Z,18.50
2018-09-06T03:12:44.478Z,18.50
2018-09-06T03:17:47.552Z,18.50
2018-09-06T03:22:50.640Z,18.50
2018-09-06T03:27:53.739Z,18.40
2018-09-06T03:32:56.827Z,18.40
2018-09-06T03:37:59.894Z,18.30
2018-09-06T03:43:02.960Z,18.30
2018-09-06T03:48:06.277Z,18.30
2018-09-06T03:53:09.366Z,18.30
2018-09-06T03:58:12.451Z,18.30
2018-09-06T04:03:15.711Z,18.30
2018-09-06T04:08:18.770Z,18.20
2018-09-06T04:13:21.869Z,18.30
2018-09-06T04:18:24.966Z,18.30
2018-09-06T04:23:28.001Z,18.30
2018-09-06T04:28:31.079Z,18.20
2018-09-06T04:33:34.170Z,18.20
2018-09-06T04:38:37.265Z,18.20
2018-09-06T04:43:40.396Z,18.20
2018-09-06T04:48:43.484Z,18.20
2018-09-06T04:53:46.561Z,18.20
2018-09-06T04:58:49.676Z,18.20
2018-09-06T05:03:52.778Z,18.20
2018-09-06T05:08:55.869Z,18.10
2018-09-06T05:13:58.982Z,18.20
2018-09-06T05:19:02.177Z,18.10
2018-09-06T05:24:05.394Z,18.20
2018-09-06T05:29:08.482Z,18.10
2018-09-06T05:34:11.597Z,18.10
2018-09-06T05:39:14.706Z,18.10
2018-09-06T05:44:17.818Z,18.10
2018-09-06T05:49:20.926Z,18.10
2018-09-06T05:54:24.007Z,18.10
2018-09-06T05:59:27.237Z,18.10
2018-09-06T06:04:30.259Z,18.10
2018-09-06T06:09:33.421Z,18.20
2018-09-06T06:14:36.530Z,18.30
2018-09-06T06:19:39.648Z,18.30
2018-09-06T06:24:43.575Z,18.40
2018-09-06T06:29:46.683Z,18.50
2018-09-06T06:34:49.793Z,18.50
2018-09-06T06:39:52.988Z,18.60
2018-09-06T06:44:56.026Z,18.70
2018-09-06T06:49:59.110Z,18.70
2018-09-06T06:55:02.233Z,18.80
2018-09-06T07:00:05.425Z,18.90
2018-09-06T07:05:08.510Z,18.90
2018-09-06T07:10:11.632Z,19.00
2018-09-06T07:15:14.743Z,19.10
2018-09-06T07:20:17.841Z,19.10
2018-09-06T07:25:20.920Z,19.20
2018-09-06T07:37:46.855Z,19.50
2018-09-06T07:42:49.947Z,19.70
2018-09-06T07:47:53.037Z,20.00
2018-09-06T07:52:56.144Z,20.20
2018-09-06T07:57:59.231Z,20.50
2018-09-06T08:03:02.311Z,20.70
2018-09-06T08:08:05.370Z,20.90
2018-09-06T08:13:08.482Z,21.10
2018-09-06T08:18:11.574Z,21.30
2018-09-06T08:23:14.713Z,21.50
2018-09-06T08:28:17.820Z,21.70
2018-09-06T08:33:20.950Z,22.10
2018-09-06T08:38:24.143Z,22.40
2018-09-06T08:43:27.255Z,22.60
2018-09-06T08:48:30.487Z,22.70
2018-09-06T08:53:33.674Z,23.00
2018-09-06T08:58:36.928Z,23.30
2018-09-06T09:03:40.011Z,23.70
2018-09-06T09:08:43.159Z,23.90
2018-09-06T09:13:46.292Z,24.10
2018-09-06T09:18:49.499Z,24.30
2018-09-06T09:23:52.720Z,24.50
2018-09-06T09:28:55.822Z,24.80
2018-09-06T09:33:59.021Z,25.00
2018-09-06T09:39:02.217Z,25.10
2018-09-06T09:44:05.391Z,25.20
2018-09-06T09:49:08.594Z,25.40
2018-09-06T09:54:11.738Z,25.60
2018-09-06T09:59:14.822Z,25.80
2018-09-06T10:04:23.380Z,25.90
2018-09-06T10:09:27.375Z,26.00
2018-09-06T10:14:30.461Z,26.20
2018-09-06T10:19:33.573Z,26.40
2018-09-06T10:24:36.638Z,26.50
2018-09-06T10:29:39.757Z,26.70
2018-09-06T10:34:42.850Z,26.70
2018-09-06T10:39:45.943Z,26.80
2018-09-06T10:44:49.062Z,26.90
2018-09-06T10:49:52.186Z,27.00
2018-09-06T10:54:55.321Z,27.20
2018-09-06T10:59:58.887Z,27.30
2018-09-06T11:05:02.002Z,27.40
2018-09-06T11:10:05.240Z,27.40
2018-09-06T11:15:08.432Z,27.60
2018-09-06T11:20:11.455Z,27.70
2018-09-06T11:25:14.559Z,27.80
2018-09-06T11:30:17.634Z,27.70
2018-09-06T11:35:20.750Z,27.70
2018-09-06T11:40:23.921Z,27.80
2018-09-06T11:45:27.119Z,27.70
2018-09-06T11:50:30.219Z,27.60
2018-09-06T11:55:33.297Z,27.70
2018-09-06T12:00:38.398Z,27.90
2018-09-06T12:05:41.511Z,28.00
2018-09-06T12:10:44.601Z,28.20
2018-09-06T12:15:47.727Z,28.30
2018-09-06T12:20:50.814Z,28.40
2018-09-06T12:25:53.915Z,28.50
2018-09-06T12:30:57.019Z,28.60
2018-09-06T12:36:00.177Z,28.80
2018-09-06T12:41:03.437Z,28.90
2018-09-06T12:46:06.831Z,28.90
2018-09-06T12:51:10.060Z,28.80
2018-09-06T12:56:13.478Z,28.70
2018-09-06T13:01:16.578Z,28.60
2018-09-06T13:06:19.753Z,28.50
2018-09-06T13:11:22.844Z,28.40
2018-09-06T13:16:25.952Z,28.30
2018-09-06T13:21:29.070Z,28.20
2018-09-06T13:26:32.163Z,28.30
2018-09-06T13:31:35.264Z,28.40
2018-09-06T13:36:38.392Z,28.40
2018-09-06T13:41:41.606Z,28.40
2018-09-06T13:46:44.788Z,28.30
2018-09-06T13:51:48.071Z,28.30
2018-09-06T13:56:51.230Z,28.30
2018-09-06T14:01:54.312Z,28.20
2018-09-06T14:06:57.413Z,28.10
2018-09-06T14:12:01.415Z,28.00
2018-09-06T14:17:04.522Z,28.00
2018-09-06T14:22:07.655Z,28.00
2018-09-06T14:27:10.778Z,27.90
2018-09-06T14:32:13.899Z,27.90
2018-09-06T14:37:17.044Z,27.90
2018-09-06T14:42:20.173Z,27.90
2018-09-06T14:47:23.247Z,27.90
2018-09-06T14:52:26.358Z,27.90
2018-09-06T14:57:29.437Z,27.90
2018-09-06T15:02:32.516Z,27.90
2018-09-06T15:07:35.655Z,27.90
2018-09-06T15:12:38.763Z,27.90
2018-09-06T15:17:41.862Z,27.80
2018-09-06T15:22:44.953Z,27.90
2018-09-06T15:27:48.057Z,27.90
2018-09-06T15:32:51.162Z,27.90
2018-09-06T15:37:54.258Z,27.90
2018-09-06T15:42:57.327Z,27.80
2018-09-06T15:48:00.486Z,27.80
2018-09-06T15:53:03.590Z,27.80
2018-09-06T15:58:06.739Z,27.70
2018-09-06T16:03:09.914Z,27.80
2018-09-06T16:08:14.724Z,27.70
2018-09-06T16:13:18.551Z,27.60
2018-09-06T16:18:21.638Z,27.50
2018-09-06T16:23:24.772Z,27.50
2018-09-06T16:28:27.963Z,27.40
2018-09-06T16:33:31.124Z,27.40
2018-09-06T16:38:34.339Z,27.30
2018-09-06T16:43:37.697Z,27.20
2018-09-06T16:48:40.777Z,27.10
2018-09-06T16:53:43.861Z,27.10
2018-09-06T16:58:47.064Z,27.00
2018-09-06T17:03:50.718Z,26.90
2018-09-06T17:08:53.817Z,26.80
2018-09-06T17:13:57.050Z,26.70
2018-09-06T17:19:00.199Z,26.60
2018-09-06T17:24:03.298Z,26.50
2018-09-06T17:29:06.407Z,26.50
2018-09-06T17:34:09.466Z,26.50
2018-09-06T17:39:13.493Z,26.40
2018-09-06T17:44:16.462Z,26.40
2018-09-06T17:49:19.619Z,26.40
2018-09-06T17:54:22.707Z,26.30
2018-09-06T17:59:25.782Z,26.20
2018-09-06T18:04:28.879Z,26.10
2018-09-06T18:09:31.966Z,26.10
2018-09-06T18:14:35.095Z,26.00
2018-09-06T18:19:38.186Z,25.80
2018-09-06T18:24:41.371Z,25.80
2018-09-06T18:29:44.495Z,25.60
2018-09-06T18:34:47.614Z,25.60
2018-09-06T18:39:50.764Z,25.50
2018-09-06T18:44:53.848Z,25.50
2018-09-06T18:49:57.011Z,25.40
2018-09-06T18:55:00.120Z,25.30
2018-09-06T19:00:03.290Z,25.20
2018-09-06T19:05:06.695Z,25.10
2018-09-06T19:10:11.052Z,25.00
2018-09-06T19:15:14.140Z,25.00
2018-09-06T19:20:17.370Z,24.90
2018-09-06T19:25:21.101Z,24.80
2018-09-06T19:30:24.251Z,24.70
2018-09-06T19:35:27.433Z,24.60
2018-09-06T19:40:30.631Z,24.50
2018-09-06T19:45:33.734Z,24.40
2018-09-06T19:50:36.834Z,24.30
2018-09-06T19:55:40.000Z,24.20
2018-09-06T20:00:43.095Z,24.20
2018-09-06T20:05:46.316Z,24.10
2018-09-06T20:10:50.566Z,24.00
2018-09-06T20:15:53.642Z,24.00
2018-09-06T20:20:56.740Z,24.00
2018-09-06T20:25:59.819Z,23.90
2018-09-06T20:31:03.110Z,23.90
2018-09-06T20:36:06.880Z,23.80
2018-09-06T20:41:09.981Z,23.80
2018-09-06T20:46:13.062Z,23.80
2018-09-06T20:51:16.147Z,23.70
2018-09-06T20:56:19.244Z,23.70
2018-09-06T21:01:22.526Z,23.60
2018-09-06T21:06:25.611Z,23.60
2018-09-06T21:11:28.687Z,23.50
2018-09-06T21:16:31.841Z,23.50
2018-09-06T21:21:34.891Z,23.40
2018-09-06T21:26:37.986Z,23.40
2018-09-06T21:31:41.075Z,23.30
2018-09-06T21:36:44.184Z,23.30
2018-09-06T21:41:47.270Z,23.20
2018-09-06T21:46:50.354Z,23.20
2018-09-06T21:51:53.660Z,23.10
2018-09-06T21:56:56.806Z,23.00
2018-09-06T22:01:59.921Z,23.00
2018-09-06T22:07:03.010Z,22.90
2018-09-06T22:12:10.382Z,22.80
2018-09-06T22:17:13.694Z,22.70
2018-09-06T22:22:16.758Z,22.70
2018-09-06T22:27:19.845Z,22.70
2018-09-06T22:32:22.970Z,22.60
2018-09-06T22:37:26.178Z,22.60
2018-09-06T22:42:29.386Z,22.60
2018-09-06T22:47:32.488Z,22.50
2018-09-06T22:52:35.615Z,22.50
2018-09-06T22:57:38.835Z,22.50
2018-09-06T23:02:47.636Z,22.40
2018-09-06T23:07:50.770Z,22.40
2018-09-06T23:12:53.858Z,22.40
2018-09-06T23:17:56.930Z,22.30
2018-09-06T23:23:00.015Z,22.30
2018-09-06T23:28:03.171Z,22.30
2018-09-06T23:33:06.229Z,22.20
2018-09-06T23:38:09.310Z,22.20
2018-09-06T23:43:12.413Z,22.20
2018-09-06T23:48:15.513Z,22.10
2018-09-06T23:53:18.641Z,22.10
2018-09-06T23:58:21.736Z,22.00
